sensor_id;sensor_type;location;lat;lon;timestamp;P1;durP1;ratioP1;P2;durP2;ratioP2
4555;SDS011;2290;48.674;9.018;2023-04-23T00:00:01;5.13;;;2.17;;
4555;SDS011;2290;48.674;9.018;2023-04-23T00:02:28;5.13;;;2.77;;
4555;SDS011;2290;48.674;9.018;2023-04-23T00:04:57;3.77;;;2.23;;
4555;SDS011;2290;48.674;9.018;2023-04-23T00:07:33;4.23;;;2.60;;
4555;SDS011;2290;48.674;9.018;2023-04-23T00:10:00;3.37;;;2.20;;
4555;SDS011;2290;48.674;9.018;2023-04-23T00:12:29;7.93;;;2.63;;
4555;SDS011;2290;48.674;9.018;2023-04-23T00:14:59;3.30;;;2.07;;
4555;SDS011;2290;48.674;9.018;2023-04-23T00:17:28;3.10;;;1.90;;
4555;SDS011;2290;48.674;9.018;2023-04-23T00:19:53;3.40;;;2.20;;
4555;SDS011;2290;48.674;9.018;2023-04-23T00:22:19;4.57;;;1.87;;
4555;SDS011;2290;48.674;9.018;2023-04-23T00:24:46;2.83;;;2.00;;
4555;SDS011;2290;48.674;9.018;2023-04-23T00:27:11;3.00;;;2.17;;
4555;SDS011;2290;48.674;9.018;2023-04-23T00:29:38;2.97;;;2.23;;
4555;SDS011;2290;48.674;9.018;2023-04-23T00:32:05;3.37;;;2.43;;
4555;SDS011;2290;48.674;9.018;2023-04-23T00:34:33;2.30;;;1.93;;
4555;SDS011;2290;48.674;9.018;2023-04-23T00:37:00;5.53;;;1.80;;
4555;SDS011;2290;48.674;9.018;2023-04-23T00:39:31;2.10;;;1.87;;
4555;SDS011;2290;48.674;9.018;2023-04-23T00:41:57;3.30;;;2.00;;
4555;SDS011;2290;48.674;9.018;2023-04-23T00:44:24;4.53;;;2.27;;
4555;SDS011;2290;48.674;9.018;2023-04-23T00:46:51;5.17;;;2.50;;
4555;SDS011;2290;48.674;9.018;2023-04-23T00:49:18;3.70;;;1.67;;
4555;SDS011;2290;48.674;9.018;2023-04-23T00:51:45;3.60;;;1.87;;
4555;SDS011;2290;48.674;9.018;2023-04-23T00:54:12;3.50;;;2.07;;
4555;SDS011;2290;48.674;9.018;2023-04-23T00:56:38;3.33;;;1.77;;
4555;SDS011;2290;48.674;9.018;2023-04-23T00:59:04;2.33;;;1.97;;
4555;SDS011;2290;48.674;9.018;2023-04-23T01:01:29;2.07;;;1.87;;
4555;SDS011;2290;48.674;9.018;2023-04-23T01:03:57;2.13;;;1.93;;
4555;SDS011;2290;48.674;9.018;2023-04-23T01:06:23;2.27;;;1.93;;
4555;SDS011;2290;48.674;9.018;2023-04-23T01:08:52;2.70;;;1.90;;
4555;SDS011;2290;48.674;9.018;2023-04-23T01:11:18;3.03;;;2.13;;
4555;SDS011;2290;48.674;9.018;2023-04-23T01:13:44;2.77;;;1.93;;
4555;SDS011;2290;48.674;9.018;2023-04-23T01:16:09;2.57;;;2.30;;
4555;SDS011;2290;48.674;9.018;2023-04-23T01:18:35;2.57;;;2.10;;
4555;SDS011;2290;48.674;9.018;2023-04-23T01:21:02;2.67;;;1.90;;
4555;SDS011;2290;48.674;9.018;2023-04-23T01:23:28;4.40;;;2.03;;
4555;SDS011;2290;48.674;9.018;2023-04-23T01:25:54;2.57;;;2.10;;
4555;SDS011;2290;48.674;9.018;2023-04-23T01:28:20;4.93;;;2.07;;
4555;SDS011;2290;48.674;9.018;2023-04-23T01:30:46;2.43;;;1.97;;
4555;SDS011;2290;48.674;9.018;2023-04-23T01:33:12;3.80;;;2.03;;
4555;SDS011;2290;48.674;9.018;2023-04-23T01:35:39;3.10;;;1.83;;
4555;SDS011;2290;48.674;9.018;2023-04-23T01:38:08;2.30;;;1.90;;
4555;SDS011;2290;48.674;9.018;2023-04-23T01:40:34;4.23;;;2.00;;
4555;SDS011;2290;48.674;9.018;2023-04-23T01:43:03;3.50;;;1.90;;
4555;SDS011;2290;48.674;9.018;2023-04-23T01:45:29;2.17;;;1.90;;
4555;SDS011;2290;48.674;9.018;2023-04-23T01:47:56;3.10;;;1.50;;
4555;SDS011;2290;48.674;9.018;2023-04-23T01:50:22;2.13;;;1.87;;
4555;SDS011;2290;48.674;9.018;2023-04-23T01:52:49;3.83;;;1.93;;
4555;SDS011;2290;48.674;9.018;2023-04-23T01:55:15;2.57;;;1.90;;
4555;SDS011;2290;48.674;9.018;2023-04-23T01:57:42;3.00;;;1.90;;
4555;SDS011;2290;48.674;9.018;2023-04-23T02:00:10;6.40;;;1.80;;
4555;SDS011;2290;48.674;9.018;2023-04-23T02:02:38;1.80;;;1.60;;
4555;SDS011;2290;48.674;9.018;2023-04-23T02:05:09;1.70;;;1.60;;
4555;SDS011;2290;48.674;9.018;2023-04-23T02:07:37;4.43;;;1.90;;
4555;SDS011;2290;48.674;9.018;2023-04-23T02:10:04;2.77;;;1.60;;
4555;SDS011;2290;48.674;9.018;2023-04-23T02:12:31;2.30;;;1.50;;
4555;SDS011;2290;48.674;9.018;2023-04-23T02:14:57;1.73;;;1.53;;
4555;SDS011;2290;48.674;9.018;2023-04-23T02:17:23;3.00;;;1.50;;
4555;SDS011;2290;48.674;9.018;2023-04-23T02:19:48;3.97;;;1.60;;
4555;SDS011;2290;48.674;9.018;2023-04-23T02:22:14;1.67;;;1.30;;
4555;SDS011;2290;48.674;9.018;2023-04-23T02:24:41;1.67;;;1.57;;
4555;SDS011;2290;48.674;9.018;2023-04-23T02:27:07;2.03;;;1.57;;
4555;SDS011;2290;48.674;9.018;2023-04-23T02:29:34;1.40;;;1.23;;
4555;SDS011;2290;48.674;9.018;2023-04-23T02:32:00;1.63;;;1.53;;
4555;SDS011;2290;48.674;9.018;2023-04-23T02:34:26;2.93;;;1.60;;
4555;SDS011;2290;48.674;9.018;2023-04-23T02:36:54;1.87;;;1.40;;
4555;SDS011;2290;48.674;9.018;2023-04-23T02:39:19;1.80;;;1.37;;
4555;SDS011;2290;48.674;9.018;2023-04-23T02:41:45;1.37;;;1.27;;
4555;SDS011;2290;48.674;9.018;2023-04-23T02:44:12;1.80;;;1.47;;
4555;SDS011;2290;48.674;9.018;2023-04-23T02:46:38;6.63;;;1.60;;
4555;SDS011;2290;48.674;9.018;2023-04-23T02:49:05;2.93;;;2.00;;
4555;SDS011;2290;48.674;9.018;2023-04-23T02:51:31;1.60;;;1.33;;
4555;SDS011;2290;48.674;9.018;2023-04-23T02:53:57;1.73;;;1.50;;
4555;SDS011;2290;48.674;9.018;2023-04-23T02:56:22;2.63;;;1.80;;
4555;SDS011;2290;48.674;9.018;2023-04-23T02:58:48;1.70;;;1.60;;
4555;SDS011;2290;48.674;9.018;2023-04-23T03:01:14;1.47;;;1.30;;
4555;SDS011;2290;48.674;9.018;2023-04-23T03:03:39;1.70;;;1.50;;
4555;SDS011;2290;48.674;9.018;2023-04-23T03:06:06;2.27;;;1.60;;
4555;SDS011;2290;48.674;9.018;2023-04-23T03:08:31;2.13;;;1.43;;
4555;SDS011;2290;48.674;9.018;2023-04-23T03:10:57;2.90;;;1.40;;
4555;SDS011;2290;48.674;9.018;2023-04-23T03:13:24;1.50;;;1.40;;
4555;SDS011;2290;48.674;9.018;2023-04-23T03:15:51;1.60;;;1.50;;
4555;SDS011;2290;48.674;9.018;2023-04-23T03:18:18;2.10;;;1.33;;
4555;SDS011;2290;48.674;9.018;2023-04-23T03:20:43;1.77;;;1.43;;
4555;SDS011;2290;48.674;9.018;2023-04-23T03:23:10;1.57;;;1.20;;
4555;SDS011;2290;48.674;9.018;2023-04-23T03:25:37;1.50;;;1.33;;
4555;SDS011;2290;48.674;9.018;2023-04-23T03:28:04;2.30;;;1.20;;
4555;SDS011;2290;48.674;9.018;2023-04-23T03:30:30;1.60;;;1.30;;
4555;SDS011;2290;48.674;9.018;2023-04-23T03:32:56;1.83;;;1.40;;
4555;SDS011;2290;48.674;9.018;2023-04-23T03:35:23;1.80;;;1.60;;
4555;SDS011;2290;48.674;9.018;2023-04-23T03:37:50;1.63;;;1.43;;
4555;SDS011;2290;48.674;9.018;2023-04-23T03:40:16;1.77;;;1.30;;
4555;SDS011;2290;48.674;9.018;2023-04-23T03:42:43;1.50;;;1.30;;
4555;SDS011;2290;48.674;9.018;2023-04-23T03:45:08;1.53;;;1.43;;
4555;SDS011;2290;48.674;9.018;2023-04-23T03:47:35;1.40;;;1.30;;
4555;SDS011;2290;48.674;9.018;2023-04-23T03:50:01;2.93;;;1.93;;
4555;SDS011;2290;48.674;9.018;2023-04-23T03:52:27;2.00;;;1.60;;
4555;SDS011;2290;48.674;9.018;2023-04-23T03:54:52;1.50;;;1.40;;
4555;SDS011;2290;48.674;9.018;2023-04-23T03:57:19;1.80;;;1.43;;
4555;SDS011;2290;48.674;9.018;2023-04-23T03:59:45;1.73;;;1.63;;
4555;SDS011;2290;48.674;9.018;2023-04-23T04:02:11;1.70;;;1.50;;
4555;SDS011;2290;48.674;9.018;2023-04-23T04:04:37;1.47;;;1.30;;
4555;SDS011;2290;48.674;9.018;2023-04-23T04:07:02;1.70;;;1.50;;
4555;SDS011;2290;48.674;9.018;2023-04-23T04:09:28;1.70;;;1.60;;
4555;SDS011;2290;48.674;9.018;2023-04-23T04:11:53;1.83;;;1.57;;
4555;SDS011;2290;48.674;9.018;2023-04-23T04:14:20;2.90;;;1.40;;
4555;SDS011;2290;48.674;9.018;2023-04-23T04:16:45;1.60;;;1.50;;
4555;SDS011;2290;48.674;9.018;2023-04-23T04:19:11;2.80;;;1.60;;
4555;SDS011;2290;48.674;9.018;2023-04-23T04:21:37;1.50;;;1.40;;
4555;SDS011;2290;48.674;9.018;2023-04-23T04:24:02;1.47;;;1.33;;
4555;SDS011;2290;48.674;9.018;2023-04-23T04:26:48;1.63;;;1.53;;
4555;SDS011;2290;48.674;9.018;2023-04-23T04:29:14;3.20;;;1.60;;
4555;SDS011;2290;48.674;9.018;2023-04-23T04:31:39;2.10;;;1.50;;
4555;SDS011;2290;48.674;9.018;2023-04-23T04:34:05;1.50;;;1.40;;
4555;SDS011;2290;48.674;9.018;2023-04-23T04:36:34;1.70;;;1.57;;
4555;SDS011;2290;48.674;9.018;2023-04-23T04:39:01;1.80;;;1.27;;
4555;SDS011;2290;48.674;9.018;2023-04-23T04:41:27;1.73;;;1.63;;
4555;SDS011;2290;48.674;9.018;2023-04-23T04:43:53;3.40;;;1.60;;
4555;SDS011;2290;48.674;9.018;2023-04-23T04:46:19;1.60;;;1.50;;
4555;SDS011;2290;48.674;9.018;2023-04-23T04:48:46;1.77;;;1.40;;
4555;SDS011;2290;48.674;9.018;2023-04-23T04:51:12;2.13;;;1.50;;
4555;SDS011;2290;48.674;9.018;2023-04-23T04:53:40;1.40;;;1.20;;
4555;SDS011;2290;48.674;9.018;2023-04-23T04:56:06;2.00;;;1.40;;
4555;SDS011;2290;48.674;9.018;2023-04-23T04:58:33;1.97;;;1.40;;
4555;SDS011;2290;48.674;9.018;2023-04-23T05:01:00;1.20;;;1.10;;
4555;SDS011;2290;48.674;9.018;2023-04-23T05:03:30;2.10;;;1.67;;
4555;SDS011;2290;48.674;9.018;2023-04-23T05:05:56;1.80;;;1.30;;
4555;SDS011;2290;48.674;9.018;2023-04-23T05:08:24;2.73;;;1.50;;
4555;SDS011;2290;48.674;9.018;2023-04-23T05:10:51;1.70;;;1.13;;
4555;SDS011;2290;48.674;9.018;2023-04-23T05:13:21;1.20;;;1.10;;
4555;SDS011;2290;48.674;9.018;2023-04-23T05:15:47;1.80;;;1.50;;
4555;SDS011;2290;48.674;9.018;2023-04-23T05:18:12;1.40;;;1.30;;
4555;SDS011;2290;48.674;9.018;2023-04-23T05:20:38;1.70;;;1.37;;
4555;SDS011;2290;48.674;9.018;2023-04-23T05:23:06;1.30;;;1.07;;
4555;SDS011;2290;48.674;9.018;2023-04-23T05:25:32;1.60;;;1.20;;
4555;SDS011;2290;48.674;9.018;2023-04-23T05:27:59;1.80;;;1.40;;
4555;SDS011;2290;48.674;9.018;2023-04-23T05:30:25;1.50;;;1.20;;
4555;SDS011;2290;48.674;9.018;2023-04-23T05:32:51;2.03;;;1.20;;
4555;SDS011;2290;48.674;9.018;2023-04-23T05:35:19;1.20;;;1.10;;
4555;SDS011;2290;48.674;9.018;2023-04-23T05:37:45;1.30;;;1.20;;
4555;SDS011;2290;48.674;9.018;2023-04-23T05:40:11;1.50;;;1.23;;
4555;SDS011;2290;48.674;9.018;2023-04-23T05:42:38;1.70;;;1.20;;
4555;SDS011;2290;48.674;9.018;2023-04-23T05:45:04;1.27;;;1.17;;
4555;SDS011;2290;48.674;9.018;2023-04-23T05:47:30;1.60;;;1.40;;
4555;SDS011;2290;48.674;9.018;2023-04-23T05:49:56;1.00;;;0.90;;
4555;SDS011;2290;48.674;9.018;2023-04-23T05:52:21;1.20;;;1.10;;
4555;SDS011;2290;48.674;9.018;2023-04-23T05:54:49;2.30;;;1.10;;
4555;SDS011;2290;48.674;9.018;2023-04-23T05:57:15;1.90;;;1.13;;
4555;SDS011;2290;48.674;9.018;2023-04-23T05:59:41;1.10;;;1.00;;
4555;SDS011;2290;48.674;9.018;2023-04-23T06:02:07;1.13;;;1.03;;
4555;SDS011;2290;48.674;9.018;2023-04-23T06:04:34;1.20;;;1.10;;
4555;SDS011;2290;48.674;9.018;2023-04-23T06:07:01;1.67;;;1.37;;
4555;SDS011;2290;48.674;9.018;2023-04-23T06:09:26;1.50;;;1.10;;
4555;SDS011;2290;48.674;9.018;2023-04-23T06:11:52;1.50;;;1.17;;
4555;SDS011;2290;48.674;9.018;2023-04-23T06:14:19;1.10;;;1.00;;
4555;SDS011;2290;48.674;9.018;2023-04-23T06:16:44;1.23;;;0.90;;
4555;SDS011;2290;48.674;9.018;2023-04-23T06:19:10;1.30;;;1.20;;
4555;SDS011;2290;48.674;9.018;2023-04-23T06:21:36;1.30;;;1.00;;
4555;SDS011;2290;48.674;9.018;2023-04-23T06:24:04;1.70;;;1.23;;
4555;SDS011;2290;48.674;9.018;2023-04-23T06:26:31;1.30;;;1.10;;
4555;SDS011;2290;48.674;9.018;2023-04-23T06:28:56;1.00;;;0.90;;
4555;SDS011;2290;48.674;9.018;2023-04-23T06:31:22;2.20;;;1.00;;
4555;SDS011;2290;48.674;9.018;2023-04-23T06:33:49;1.50;;;1.20;;
4555;SDS011;2290;48.674;9.018;2023-04-23T06:36:15;1.30;;;1.10;;
4555;SDS011;2290;48.674;9.018;2023-04-23T06:38:42;2.17;;;1.00;;
4555;SDS011;2290;48.674;9.018;2023-04-23T06:41:08;1.97;;;1.27;;
4555;SDS011;2290;48.674;9.018;2023-04-23T06:43:35;1.63;;;1.13;;
4555;SDS011;2290;48.674;9.018;2023-04-23T06:46:00;1.40;;;1.10;;
4555;SDS011;2290;48.674;9.018;2023-04-23T06:48:26;1.20;;;1.10;;
4555;SDS011;2290;48.674;9.018;2023-04-23T06:50:51;1.13;;;0.90;;
4555;SDS011;2290;48.674;9.018;2023-04-23T06:53:17;1.23;;;1.13;;
4555;SDS011;2290;48.674;9.018;2023-04-23T06:55:42;2.50;;;1.20;;
4555;SDS011;2290;48.674;9.018;2023-04-23T06:58:08;1.07;;;0.97;;
4555;SDS011;2290;48.674;9.018;2023-04-23T07:00:35;1.50;;;1.10;;
4555;SDS011;2290;48.674;9.018;2023-04-23T07:03:01;1.83;;;1.00;;
4555;SDS011;2290;48.674;9.018;2023-04-23T07:05:26;1.93;;;1.10;;
4555;SDS011;2290;48.674;9.018;2023-04-23T07:07:52;1.33;;;0.93;;
4555;SDS011;2290;48.674;9.018;2023-04-23T07:10:18;1.67;;;1.20;;
4555;SDS011;2290;48.674;9.018;2023-04-23T07:12:43;1.00;;;0.90;;
4555;SDS011;2290;48.674;9.018;2023-04-23T07:15:09;2.43;;;1.10;;
4555;SDS011;2290;48.674;9.018;2023-04-23T07:17:35;5.73;;;2.40;;
4555;SDS011;2290;48.674;9.018;2023-04-23T07:20:01;3.73;;;1.23;;
4555;SDS011;2290;48.674;9.018;2023-04-23T07:22:31;1.30;;;1.20;;
4555;SDS011;2290;48.674;9.018;2023-04-23T07:24:57;2.17;;;1.43;;
4555;SDS011;2290;48.674;9.018;2023-04-23T07:27:24;1.40;;;1.20;;
4555;SDS011;2290;48.674;9.018;2023-04-23T07:29:49;2.90;;;1.67;;
4555;SDS011;2290;48.674;9.018;2023-04-23T07:32:16;2.40;;;1.27;;
4555;SDS011;2290;48.674;9.018;2023-04-23T07:34:42;1.27;;;1.10;;
4555;SDS011;2290;48.674;9.018;2023-04-23T07:37:08;2.87;;;1.20;;
4555;SDS011;2290;48.674;9.018;2023-04-23T07:39:33;1.33;;;1.10;;
4555;SDS011;2290;48.674;9.018;2023-04-23T07:41:59;1.30;;;1.20;;
4555;SDS011;2290;48.674;9.018;2023-04-23T07:44:26;2.60;;;1.10;;
4555;SDS011;2290;48.674;9.018;2023-04-23T07:46:53;1.60;;;1.13;;
4555;SDS011;2290;48.674;9.018;2023-04-23T07:49:18;1.23;;;1.13;;
4555;SDS011;2290;48.674;9.018;2023-04-23T07:51:44;1.57;;;1.10;;
4555;SDS011;2290;48.674;9.018;2023-04-23T07:54:11;1.50;;;1.27;;
4555;SDS011;2290;48.674;9.018;2023-04-23T07:56:36;1.30;;;1.20;;
4555;SDS011;2290;48.674;9.018;2023-04-23T07:59:02;1.40;;;1.30;;
4555;SDS011;2290;48.674;9.018;2023-04-23T08:01:30;1.30;;;1.20;;
4555;SDS011;2290;48.674;9.018;2023-04-23T08:03:56;1.37;;;1.27;;
4555;SDS011;2290;48.674;9.018;2023-04-23T08:06:24;1.03;;;0.90;;
4555;SDS011;2290;48.674;9.018;2023-04-23T08:08:51;1.70;;;1.40;;
4555;SDS011;2290;48.674;9.018;2023-04-23T08:11:17;1.20;;;1.10;;
4555;SDS011;2290;48.674;9.018;2023-04-23T08:13:43;1.20;;;1.10;;
4555;SDS011;2290;48.674;9.018;2023-04-23T08:16:08;1.50;;;1.40;;
4555;SDS011;2290;48.674;9.018;2023-04-23T08:18:34;2.47;;;1.40;;
4555;SDS011;2290;48.674;9.018;2023-04-23T08:21:00;1.40;;;1.20;;
4555;SDS011;2290;48.674;9.018;2023-04-23T08:23:26;1.47;;;1.23;;
4555;SDS011;2290;48.674;9.018;2023-04-23T08:25:52;1.40;;;1.27;;
4555;SDS011;2290;48.674;9.018;2023-04-23T08:28:18;3.17;;;1.40;;
4555;SDS011;2290;48.674;9.018;2023-04-23T08:30:44;1.40;;;1.30;;
4555;SDS011;2290;48.674;9.018;2023-04-23T08:33:10;1.60;;;1.23;;
4555;SDS011;2290;48.674;9.018;2023-04-23T08:35:36;2.30;;;1.30;;
4555;SDS011;2290;48.674;9.018;2023-04-23T08:38:02;1.73;;;1.40;;
4555;SDS011;2290;48.674;9.018;2023-04-23T08:40:29;2.17;;;1.30;;
4555;SDS011;2290;48.674;9.018;2023-04-23T08:45:31;1.50;;;1.30;;
4555;SDS011;2290;48.674;9.018;2023-04-23T08:47:59;2.10;;;1.40;;
4555;SDS011;2290;48.674;9.018;2023-04-23T08:50:27;1.87;;;1.40;;
4555;SDS011;2290;48.674;9.018;2023-04-23T08:52:54;1.70;;;1.30;;
4555;SDS011;2290;48.674;9.018;2023-04-23T08:55:23;1.73;;;1.40;;
4555;SDS011;2290;48.674;9.018;2023-04-23T08:57:49;2.10;;;1.70;;
4555;SDS011;2290;48.674;9.018;2023-04-23T09:00:16;2.60;;;1.67;;
4555;SDS011;2290;48.674;9.018;2023-04-23T09:02:44;2.00;;;1.50;;
4555;SDS011;2290;48.674;9.018;2023-04-23T09:05:12;2.30;;;1.60;;
4555;SDS011;2290;48.674;9.018;2023-04-23T09:07:38;1.50;;;1.40;;
4555;SDS011;2290;48.674;9.018;2023-04-23T09:10:05;2.37;;;1.47;;
4555;SDS011;2290;48.674;9.018;2023-04-23T09:12:36;2.03;;;1.70;;
4555;SDS011;2290;48.674;9.018;2023-04-23T09:15:04;1.90;;;1.67;;
4555;SDS011;2290;48.674;9.018;2023-04-23T09:17:35;1.73;;;1.60;;
4555;SDS011;2290;48.674;9.018;2023-04-23T09:20:08;2.27;;;1.60;;
4555;SDS011;2290;48.674;9.018;2023-04-23T09:25:18;1.50;;;1.40;;
4555;SDS011;2290;48.674;9.018;2023-04-23T09:27:47;2.87;;;1.90;;
4555;SDS011;2290;48.674;9.018;2023-04-23T09:30:15;1.80;;;1.70;;
4555;SDS011;2290;48.674;9.018;2023-04-23T09:32:42;2.33;;;1.70;;
4555;SDS011;2290;48.674;9.018;2023-04-23T09:35:14;2.17;;;1.60;;
4555;SDS011;2290;48.674;9.018;2023-04-23T09:37:41;1.70;;;1.40;;
4555;SDS011;2290;48.674;9.018;2023-04-23T09:40:07;1.57;;;1.47;;
4555;SDS011;2290;48.674;9.018;2023-04-23T09:42:34;3.03;;;1.60;;
4555;SDS011;2290;48.674;9.018;2023-04-23T09:45:04;3.07;;;1.60;;
4555;SDS011;2290;48.674;9.018;2023-04-23T09:47:31;1.80;;;1.70;;
4555;SDS011;2290;48.674;9.018;2023-04-23T09:49:58;1.90;;;1.37;;
4555;SDS011;2290;48.674;9.018;2023-04-23T09:52:24;1.77;;;1.67;;
4555;SDS011;2290;48.674;9.018;2023-04-23T09:54:51;1.70;;;1.60;;
4555;SDS011;2290;48.674;9.018;2023-04-23T09:57:16;1.40;;;1.30;;
4555;SDS011;2290;48.674;9.018;2023-04-23T09:59:42;1.90;;;1.70;;
4555;SDS011;2290;48.674;9.018;2023-04-23T10:02:08;1.57;;;1.40;;
4555;SDS011;2290;48.674;9.018;2023-04-23T10:04:36;3.13;;;1.60;;
4555;SDS011;2290;48.674;9.018;2023-04-23T10:07:03;1.90;;;1.70;;
4555;SDS011;2290;48.674;9.018;2023-04-23T10:09:32;1.70;;;1.60;;
4555;SDS011;2290;48.674;9.018;2023-04-23T10:12:00;1.47;;;1.30;;
4555;SDS011;2290;48.674;9.018;2023-04-23T10:14:26;1.90;;;1.50;;
4555;SDS011;2290;48.674;9.018;2023-04-23T10:17:00;1.60;;;1.40;;
4555;SDS011;2290;48.674;9.018;2023-04-23T10:19:29;2.57;;;1.50;;
4555;SDS011;2290;48.674;9.018;2023-04-23T10:21:57;5.33;;;1.43;;
4555;SDS011;2290;48.674;9.018;2023-04-23T10:24:26;3.23;;;1.30;;
4555;SDS011;2290;48.674;9.018;2023-04-23T10:26:56;1.53;;;1.30;;
4555;SDS011;2290;48.674;9.018;2023-04-23T10:29:35;4.10;;;1.23;;
4555;SDS011;2290;48.674;9.018;2023-04-23T10:32:04;2.40;;;1.40;;
4555;SDS011;2290;48.674;9.018;2023-04-23T10:34:31;1.50;;;1.27;;
4555;SDS011;2290;48.674;9.018;2023-04-23T10:36:58;1.57;;;1.20;;
4555;SDS011;2290;48.674;9.018;2023-04-23T10:39:25;1.20;;;1.10;;
4555;SDS011;2290;48.674;9.018;2023-04-23T10:41:52;1.40;;;1.30;;
4555;SDS011;2290;48.674;9.018;2023-04-23T10:44:19;1.73;;;1.37;;
4555;SDS011;2290;48.674;9.018;2023-04-23T10:46:52;1.20;;;1.10;;
4555;SDS011;2290;48.674;9.018;2023-04-23T10:49:23;3.83;;;1.93;;
4555;SDS011;2290;48.674;9.018;2023-04-23T10:51:59;1.73;;;1.33;;
4555;SDS011;2290;48.674;9.018;2023-04-23T10:54:29;1.50;;;1.37;;
4555;SDS011;2290;48.674;9.018;2023-04-23T10:57:05;2.03;;;1.60;;
4555;SDS011;2290;48.674;9.018;2023-04-23T10:59:32;1.70;;;1.50;;
4555;SDS011;2290;48.674;9.018;2023-04-23T11:02:06;1.80;;;1.40;;
4555;SDS011;2290;48.674;9.018;2023-04-23T11:04:46;1.27;;;1.17;;
4555;SDS011;2290;48.674;9.018;2023-04-23T11:07:18;1.97;;;1.30;;
4555;SDS011;2290;48.674;9.018;2023-04-23T11:09:45;1.70;;;1.17;;
4555;SDS011;2290;48.674;9.018;2023-04-23T11:14:55;1.20;;;1.03;;
4555;SDS011;2290;48.674;9.018;2023-04-23T11:17:57;1.83;;;1.20;;
4555;SDS011;2290;48.674;9.018;2023-04-23T11:20:17;1.40;;;1.20;;
4555;SDS011;2290;48.674;9.018;2023-04-23T11:22:45;1.30;;;1.10;;
4555;SDS011;2290;48.674;9.018;2023-04-23T11:25:25;1.40;;;1.23;;
4555;SDS011;2290;48.674;9.018;2023-04-23T11:27:54;1.30;;;1.20;;
4555;SDS011;2290;48.674;9.018;2023-04-23T11:30:21;1.20;;;1.00;;
4555;SDS011;2290;48.674;9.018;2023-04-23T11:32:49;1.30;;;1.20;;
4555;SDS011;2290;48.674;9.018;2023-04-23T11:35:16;2.23;;;1.10;;
4555;SDS011;2290;48.674;9.018;2023-04-23T11:37:44;1.20;;;1.10;;
4555;SDS011;2290;48.674;9.018;2023-04-23T11:40:12;1.67;;;1.40;;
4555;SDS011;2290;48.674;9.018;2023-04-23T11:42:47;1.40;;;1.30;;
4555;SDS011;2290;48.674;9.018;2023-04-23T11:45:21;1.43;;;1.23;;
4555;SDS011;2290;48.674;9.018;2023-04-23T11:47:48;2.50;;;1.20;;
4555;SDS011;2290;48.674;9.018;2023-04-23T11:50:21;1.93;;;1.10;;
4555;SDS011;2290;48.674;9.018;2023-04-23T11:52:47;1.67;;;1.30;;
4555;SDS011;2290;48.674;9.018;2023-04-23T11:55:13;1.30;;;1.20;;
4555;SDS011;2290;48.674;9.018;2023-04-23T11:57:41;1.50;;;1.23;;
4555;SDS011;2290;48.674;9.018;2023-04-23T12:00:25;1.83;;;1.40;;
4555;SDS011;2290;48.674;9.018;2023-04-23T12:02:53;1.40;;;1.20;;
4555;SDS011;2290;48.674;9.018;2023-04-23T12:05:35;1.40;;;1.30;;
4555;SDS011;2290;48.674;9.018;2023-04-23T12:08:14;1.60;;;1.50;;
4555;SDS011;2290;48.674;9.018;2023-04-23T12:13:21;1.43;;;1.33;;
4555;SDS011;2290;48.674;9.018;2023-04-23T12:15:53;1.50;;;1.20;;
4555;SDS011;2290;48.674;9.018;2023-04-23T12:18:33;1.43;;;1.33;;
4555;SDS011;2290;48.674;9.018;2023-04-23T12:21:08;1.50;;;1.30;;
4555;SDS011;2290;48.674;9.018;2023-04-23T12:23:38;1.60;;;1.17;;
4555;SDS011;2290;48.674;9.018;2023-04-23T12:26:12;1.63;;;1.20;;
4555;SDS011;2290;48.674;9.018;2023-04-23T12:28:59;1.20;;;1.10;;
4555;SDS011;2290;48.674;9.018;2023-04-23T12:31:26;1.63;;;1.17;;
4555;SDS011;2290;48.674;9.018;2023-04-23T12:34:03;3.73;;;1.40;;
4555;SDS011;2290;48.674;9.018;2023-04-23T12:36:30;1.47;;;1.20;;
4555;SDS011;2290;48.674;9.018;2023-04-23T12:42:02;1.57;;;1.40;;
4555;SDS011;2290;48.674;9.018;2023-04-23T12:44:33;1.13;;;1.03;;
4555;SDS011;2290;48.674;9.018;2023-04-23T12:47:03;2.27;;;1.60;;
4555;SDS011;2290;48.674;9.018;2023-04-23T12:49:31;1.60;;;1.23;;
4555;SDS011;2290;48.674;9.018;2023-04-23T12:51:59;1.60;;;1.33;;
4555;SDS011;2290;48.674;9.018;2023-04-23T12:54:26;2.50;;;1.37;;
4555;SDS011;2290;48.674;9.018;2023-04-23T12:56:53;1.37;;;1.23;;
4555;SDS011;2290;48.674;9.018;2023-04-23T12:59:19;1.63;;;1.23;;
4555;SDS011;2290;48.674;9.018;2023-04-23T13:01:47;1.93;;;1.20;;
4555;SDS011;2290;48.674;9.018;2023-04-23T13:04:12;2.23;;;1.30;;
4555;SDS011;2290;48.674;9.018;2023-04-23T13:06:41;1.40;;;1.23;;
4555;SDS011;2290;48.674;9.018;2023-04-23T13:09:08;1.30;;;1.20;;
4555;SDS011;2290;48.674;9.018;2023-04-23T13:11:34;1.97;;;1.37;;
4555;SDS011;2290;48.674;9.018;2023-04-23T13:14:04;1.27;;;1.17;;
4555;SDS011;2290;48.674;9.018;2023-04-23T13:16:30;1.23;;;1.13;;
4555;SDS011;2290;48.674;9.018;2023-04-23T13:18:56;1.23;;;1.10;;
4555;SDS011;2290;48.674;9.018;2023-04-23T13:21:21;1.67;;;1.10;;
4555;SDS011;2290;48.674;9.018;2023-04-23T13:23:47;1.40;;;1.20;;
4555;SDS011;2290;48.674;9.018;2023-04-23T13:26:13;3.33;;;1.60;;
4555;SDS011;2290;48.674;9.018;2023-04-23T13:28:40;1.60;;;1.23;;
4555;SDS011;2290;48.674;9.018;2023-04-23T13:31:06;1.93;;;1.30;;
4555;SDS011;2290;48.674;9.018;2023-04-23T13:33:33;4.67;;;2.77;;
4555;SDS011;2290;48.674;9.018;2023-04-23T13:36:01;1.53;;;1.40;;
4555;SDS011;2290;48.674;9.018;2023-04-23T13:38:27;2.27;;;1.17;;
4555;SDS011;2290;48.674;9.018;2023-04-23T13:40:53;1.67;;;1.40;;
4555;SDS011;2290;48.674;9.018;2023-04-23T13:43:20;1.30;;;1.20;;
4555;SDS011;2290;48.674;9.018;2023-04-23T13:45:47;1.53;;;1.13;;
4555;SDS011;2290;48.674;9.018;2023-04-23T13:48:14;1.30;;;1.20;;
4555;SDS011;2290;48.674;9.018;2023-04-23T13:50:41;2.07;;;1.87;;
4555;SDS011;2290;48.674;9.018;2023-04-23T13:53:08;1.30;;;1.20;;
4555;SDS011;2290;48.674;9.018;2023-04-23T13:55:34;1.73;;;1.50;;
4555;SDS011;2290;48.674;9.018;2023-04-23T13:58:01;1.73;;;1.33;;
4555;SDS011;2290;48.674;9.018;2023-04-23T14:00:28;1.40;;;1.30;;
4555;SDS011;2290;48.674;9.018;2023-04-23T14:02:54;2.70;;;1.37;;
4555;SDS011;2290;48.674;9.018;2023-04-23T14:05:20;1.60;;;1.27;;
4555;SDS011;2290;48.674;9.018;2023-04-23T14:07:46;1.50;;;1.40;;
4555;SDS011;2290;48.674;9.018;2023-04-23T14:10:12;1.30;;;1.20;;
4555;SDS011;2290;48.674;9.018;2023-04-23T14:12:39;2.10;;;1.23;;
4555;SDS011;2290;48.674;9.018;2023-04-23T14:15:05;1.87;;;1.30;;
4555;SDS011;2290;48.674;9.018;2023-04-23T14:17:36;1.63;;;1.40;;
4555;SDS011;2290;48.674;9.018;2023-04-23T14:20:07;1.50;;;1.40;;
4555;SDS011;2290;48.674;9.018;2023-04-23T14:22:35;1.63;;;1.17;;
4555;SDS011;2290;48.674;9.018;2023-04-23T14:25:02;1.50;;;1.30;;
4555;SDS011;2290;48.674;9.018;2023-04-23T14:27:43;1.70;;;1.50;;
4555;SDS011;2290;48.674;9.018;2023-04-23T14:30:14;2.87;;;1.20;;
4555;SDS011;2290;48.674;9.018;2023-04-23T14:32:42;1.83;;;1.27;;
4555;SDS011;2290;48.674;9.018;2023-04-23T14:35:11;1.70;;;1.33;;
4555;SDS011;2290;48.674;9.018;2023-04-23T14:37:39;2.17;;;1.40;;
4555;SDS011;2290;48.674;9.018;2023-04-23T14:40:10;1.60;;;1.27;;
4555;SDS011;2290;48.674;9.018;2023-04-23T14:42:47;2.30;;;1.60;;
4555;SDS011;2290;48.674;9.018;2023-04-23T14:45:14;1.57;;;1.47;;
4555;SDS011;2290;48.674;9.018;2023-04-23T14:47:44;2.20;;;1.63;;
4555;SDS011;2290;48.674;9.018;2023-04-23T14:50:14;1.40;;;1.30;;
4555;SDS011;2290;48.674;9.018;2023-04-23T14:52:46;1.70;;;1.30;;
4555;SDS011;2290;48.674;9.018;2023-04-23T14:55:14;3.30;;;2.53;;
4555;SDS011;2290;48.674;9.018;2023-04-23T14:57:40;4.10;;;1.80;;
4555;SDS011;2290;48.674;9.018;2023-04-23T15:00:07;2.73;;;1.80;;
4555;SDS011;2290;48.674;9.018;2023-04-23T15:02:37;2.10;;;1.90;;
4555;SDS011;2290;48.674;9.018;2023-04-23T15:05:06;2.73;;;1.33;;
4555;SDS011;2290;48.674;9.018;2023-04-23T15:07:34;3.33;;;2.03;;
4555;SDS011;2290;48.674;9.018;2023-04-23T15:10:00;3.80;;;2.33;;
4555;SDS011;2290;48.674;9.018;2023-04-23T15:14:55;2.13;;;1.53;;
4555;SDS011;2290;48.674;9.018;2023-04-23T15:17:21;1.50;;;1.40;;
4555;SDS011;2290;48.674;9.018;2023-04-23T15:19:47;1.70;;;1.60;;
4555;SDS011;2290;48.674;9.018;2023-04-23T15:22:14;3.33;;;1.87;;
4555;SDS011;2290;48.674;9.018;2023-04-23T15:24:39;5.40;;;1.80;;
4555;SDS011;2290;48.674;9.018;2023-04-23T15:27:05;3.40;;;1.30;;
4555;SDS011;2290;48.674;9.018;2023-04-23T15:29:32;2.03;;;1.50;;
4555;SDS011;2290;48.674;9.018;2023-04-23T15:31:59;2.63;;;1.60;;